Time;durP1;ratioP1;P1;durP2;ratioP2;P2;SDS_P1;SDS_P2;PMS_P1;PMS_P2;Temp;Humidity;BMP_temperature;BMP_pressure;BME280_temperature;BME280_humidity;BME280_pressure;Samples;Min_cycle;Max_cycle;Signal;HPM_P1;HPM_P2
2022/08/22 00:00:28;;;;;;;;;;;;;;;19.03;76.18;92811.53;5092656;28;20024;-67
2022/08/22 00:03:02;;;;;;;4.05;3.50;;;;;;;18.95;76.06;92819.50;5093896;28;20411;-65
2022/08/22 00:05:34;;;;;;;5.00;4.20;;;;;;;18.91;76.68;92817.19;5113104;28;20023;-67
2022/08/22 00:08:13;;;;;;;4.43;3.80;;;;;;;18.79;76.43;92805.38;5112263;28;20389;-68
2022/08/22 00:11:07;;;;;;;5.90;3.95;;;;;;;18.84;76.24;92809.84;5112241;28;20034;-67
2022/08/22 00:13:35;;;;;;;6.93;3.97;;;;;;;18.95;76.16;92805.53;5113056;28;20031;-68
2022/08/22 00:16:16;;;;;;;8.98;4.72;;;;;;;18.93;76.46;92795.66;5113338;27;20020;-68
2022/08/22 00:18:59;;;;;;;7.57;5.30;;;;;;;19.04;75.79;92804.56;5112926;28;20027;-68
2022/08/22 00:21:30;;;;;;;7.15;4.43;;;;;;;19.10;74.99;92790.94;5112427;28;20094;-68
2022/08/22 00:24:41;;;;;;;6.25;4.53;;;;;;;19.13;75.15;92798.06;5092892;28;20512;-68
2022/08/22 00:27:18;;;;;;;5.78;4.30;;;;;;;19.11;75.00;92795.88;5088197;28;20047;-68
2022/08/22 00:29:48;;;;;;;6.00;3.88;;;;;;;19.16;74.69;92791.22;5091252;28;20102;-68
2022/08/22 00:32:26;;;;;;;6.55;4.18;;;;;;;19.16;74.99;92780.78;5092323;28;20428;-68
2022/08/22 00:34:59;;;;;;;6.80;3.45;;;;;;;19.14;75.28;92785.53;5110426;28;20055;-68
2022/08/22 00:37:31;;;;;;;5.07;3.92;;;;;;;19.10;75.44;92777.63;5112945;28;20038;-68
2022/08/22 00:40:28;;;;;;;8.27;3.65;;;;;;;19.08;76.02;92782.44;5111423;28;20549;-68
2022/08/22 00:43:45;;;;;;;5.78;3.65;;;;;;;19.07;76.50;92783.75;5095305;28;20035;-68
2022/08/22 00:46:22;;;;;;;8.93;3.78;;;;;;;19.11;75.59;92783.97;5112661;28;20107;-66
2022/08/22 00:49:09;;;;;;;4.63;3.65;;;;;;;18.96;76.19;92779.72;5112643;27;20039;-68
2022/08/22 00:51:35;;;;;;;6.65;3.88;;;;;;;18.86;76.94;92779.91;5112499;28;20106;-68
2022/08/22 00:54:18;;;;;;;5.43;4.05;;;;;;;18.75;77.73;92791.19;5112611;28;20051;-68
2022/08/22 00:57:17;;;;;;;6.38;3.78;;;;;;;18.72;77.77;92800.81;5111454;28;20476;-68
2022/08/22 01:00:07;;;;;;;6.28;4.05;;;;;;;18.80;77.47;92784.44;5111346;28;20049;-68
2022/08/22 01:02:54;;;;;;;7.38;3.92;;;;;;;18.65;78.09;92785.03;5112391;28;20106;-67
2022/08/22 01:05:56;;;;;;;4.43;3.70;;;;;;;18.64;77.94;92784.31;5091918;28;20028;-68
2022/08/22 01:08:46;;;;;;;6.72;3.92;;;;;;;18.63;77.89;92779.34;5091921;28;20047;-68
2022/08/22 01:11:29;;;;;;;6.43;3.95;;;;;;;18.67;77.59;92779.53;5091930;28;20028;-68
2022/08/22 01:13:57;;;;;;;8.32;4.43;;;;;;;18.65;77.53;92785.03;5091848;28;20412;-68
2022/08/22 01:16:57;;;;;;;8.40;4.40;;;;;;;18.50;78.13;92786.34;5091906;28;20026;-68
2022/08/22 01:19:55;;;;;;;4.75;3.63;;;;;;;18.41;78.29;92776.03;5091451;28;20106;-68
2022/08/22 01:22:34;;;;;;;6.97;4.00;;;;;;;18.34;78.71;92790.31;5090784;28;20030;-68
2022/08/22 01:25:36;;;;;;;9.52;4.60;;;;;;;18.34;78.91;92787.53;5091584;28;20028;-68
2022/08/22 01:28:04;;;;;;;7.38;4.50;;;;;;;18.26;79.55;92789.88;5091270;28;20039;-68
2022/08/22 01:30:44;;;;;;;7.82;5.50;;;;;;;18.33;79.40;92788.84;5090812;28;20028;-68
2022/08/22 01:33:47;;;;;;;7.22;5.28;;;;;;;18.40;78.97;92796.22;5096210;28;20031;-68
2022/08/22 01:36:19;;;;;;;9.02;5.85;;;;;;;18.31;78.98;92795.06;5111409;28;20047;-68
2022/08/22 01:39:10;;;;;;;9.25;5.20;;;;;;;18.25;78.91;92802.38;5110547;28;20031;-68
2022/08/22 01:42:03;;;;;;;8.93;5.30;;;;;;;18.12;78.80;92793.34;5111665;28;20102;-67
2022/08/22 01:44:37;;;;;;;6.32;5.00;;;;;;;18.18;78.76;92795.72;5111549;28;20023;-68
2022/08/22 01:47:07;;;;;;;11.57;6.53;;;;;;;18.19;79.40;92783.94;5111538;28;20385;-68
2022/08/22 01:49:33;;;;;;;8.13;6.38;;;;;;;18.16;80.00;92787.25;5109903;28;20046;-68
2022/08/22 01:52:19;;;;;;;9.55;5.57;;;;;;;18.08;79.75;92792.38;5111464;28;20102;-68
2022/08/22 01:54:56;;;;;;;7.63;4.85;;;;;;;17.89;79.45;92790.63;5111507;28;20042;-68
2022/08/22 01:57:23;;;;;;;6.70;4.45;;;;;;;17.87;79.31;92782.13;5109836;28;20027;-68
2022/08/22 01:59:51;;;;;;;6.10;4.72;;;;;;;17.80;79.52;92783.13;5111055;28;20027;-68
2022/08/22 02:02:44;;;;;;;7.68;4.93;;;;;;;17.64;79.94;92781.47;5111343;28;20028;-68
2022/08/22 02:05:15;;;;;;;12.02;5.25;;;;;;;17.68;80.00;92787.28;5090584;28;20105;-68
2022/08/22 02:07:47;;;;;;;6.72;5.57;;;;;;;17.70;79.86;92788.13;5090871;28;20035;-68
2022/08/22 02:10:40;;;;;;;8.48;5.50;;;;;;;17.72;79.71;92782.66;5090566;28;20035;-68
2022/08/22 02:13:19;;;;;;;9.43;6.35;;;;;;;17.62;80.33;92789.75;5090886;28;20173;-68
2022/08/22 02:15:52;;;;;;;13.80;6.57;;;;;;;17.73;80.28;92783.41;5090843;28;20028;-68
2022/08/22 02:18:28;;;;;;;7.65;5.63;;;;;;;17.65;79.59;92786.44;5106475;28;20454;-68
2022/08/22 02:20:58;;;;;;;8.55;5.40;;;;;;;17.50;79.67;92792.56;5106537;28;20074;-68
2022/08/22 02:23:24;;;;;;;7.05;5.95;;;;;;;17.30;80.32;92778.13;5088658;28;20032;-68
2022/08/22 02:26:01;;;;;;;7.10;5.55;;;;;;;17.42;79.92;92780.91;5090544;28;20538;-68
2022/08/22 02:28:55;;;;;;;8.55;5.65;;;;;;;17.38;79.63;92786.25;5090385;28;20032;-67
2022/08/22 02:31:44;;;;;;;6.72;6.00;;;;;;;17.42;78.91;92792.06;5090515;28;20079;-67
2022/08/22 02:34:27;;;;;;;;;;;;;;;17.43;78.61;92796.31;5103414;28;20512;-67
2022/08/22 02:37:12;;;;;;;9.65;5.53;;;;;;;17.35;79.18;92804.19;5110610;28;20377;-68
2022/08/22 02:39:45;;;;;;;8.73;5.53;;;;;;;17.30;78.45;92780.91;5110607;28;20036;-68
2022/08/22 02:42:32;;;;;;;6.72;5.72;;;;;;;17.32;78.76;92803.38;5111993;28;20042;-68
2022/08/22 02:45:21;;;;;;;6.43;5.50;;;;;;;17.01;79.47;92805.69;5113458;28;20031;-68
2022/08/22 02:48:14;;;;;;;8.20;5.07;;;;;;;17.01;79.27;92804.97;5113965;28;20039;-67
2022/08/22 02:50:49;;;;;;;11.88;5.78;;;;;;;16.87;79.98;92806.91;5114674;28;20023;-68
2022/08/22 02:53:38;;;;;;;7.60;5.55;;;;;;;17.02;78.96;92803.63;5113878;28;20160;-68
2022/08/22 02:56:21;;;;;;;11.35;5.53;;;;;;;16.97;78.87;92804.72;5114667;28;20164;-68
2022/08/22 02:59:04;;;;;;;8.57;5.95;;;;;;;16.99;78.70;92810.41;5114979;27;20028;-67
2022/08/22 03:01:30;;;;;;;6.72;4.70;;;;;;;17.00;78.33;92809.09;5114805;28;20470;-67
2022/08/22 03:04:43;;;;;;;8.27;5.50;;;;;;;17.05;78.47;92805.94;5103781;28;20032;-67
2022/08/22 03:07:32;;;;;;;7.00;5.80;;;;;;;16.99;78.71;92810.41;5084196;28;20119;-68
2022/08/22 03:10:17;;;;;;;10.02;6.93;;;;;;;16.80;79.40;92805.09;5093584;28;20044;-68
2022/08/22 03:13:09;;;;;;;8.32;5.50;;;;;;;16.88;79.53;92805.56;5094203;28;20428;-68
2022/08/22 03:15:53;;;;;;;9.35;5.97;;;;;;;16.98;79.23;92811.78;5092955;28;20059;-68
2022/08/22 03:18:33;;;;;;;11.15;7.15;;;;;;;16.89;79.77;92810.53;5093819;28;20516;-68
2022/08/22 03:21:29;;;;;;;9.75;6.85;;;;;;;16.93;79.63;92815.63;5093733;28;20077;-68
2022/08/22 03:24:05;;;;;;;9.40;6.22;;;;;;;16.82;79.66;92810.78;5092600;28;20032;-68
2022/08/22 03:26:51;;;;;;;11.98;6.53;;;;;;;16.96;78.55;92809.56;5092286;28;20028;-68
2022/08/22 03:29:25;;;;;;;7.97;5.03;;;;;;;16.91;78.57;92798.78;5093669;28;20085;-68
2022/08/22 03:32:12;;;;;;;19.90;5.82;;;;;;;16.86;78.64;92800.59;5092643;28;20047;-68
2022/08/22 03:35:00;;;;;;;6.82;5.15;;;;;;;16.55;80.01;92798.03;5093471;28;20610;-67
2022/08/22 03:37:34;;;;;;;9.85;5.65;;;;;;;16.66;79.74;92802.16;5092246;28;20113;-68
2022/08/22 03:40:07;;;;;;;6.00;5.38;;;;;;;16.74;79.29;92804.72;5093424;28;20059;-68
2022/08/22 03:43:01;;;;;;;10.48;6.10;;;;;;;16.79;78.88;92801.56;5111977;28;20042;-68
2022/08/22 03:46:01;;;;;;;9.68;5.63;;;;;;;16.78;78.96;92799.38;5113917;28;20099;-68
2022/08/22 03:48:29;;;;;;;8.27;5.47;;;;;;;16.82;79.11;92802.41;5112519;28;20027;-68
2022/08/22 03:51:25;;;;;;;10.30;5.68;;;;;;;16.90;78.94;92800.09;5113847;28;20032;-68
2022/08/22 03:54:22;;;;;;;7.95;5.28;;;;;;;16.77;79.73;92804.22;5112671;28;20540;-68
2022/08/22 03:57:05;;;;;;;6.05;5.43;;;;;;;16.78;80.13;92805.69;5098575;28;20039;-68
2022/08/22 03:59:42;;;;;;;13.60;5.28;;;;;;;16.80;80.40;92793.94;5113699;28;20034;-68
2022/08/22 04:02:45;;;;;;;6.75;5.13;;;;;;;16.84;80.85;92808.84;5113635;28;20096;-68
2022/08/22 04:05:39;;;;;;;6.97;5.18;;;;;;;16.98;80.56;92804.09;5092814;28;20039;-68
2022/08/22 04:08:41;;;;;;;17.67;5.65;;;;;;;16.98;80.61;92803.41;5093141;28;20416;-67
2022/08/22 04:11:35;;;;;;;10.45;5.30;;;;;;;17.09;80.54;92811.00;5092855;28;20035;-67
2022/08/22 04:14:12;;;;;;;8.80;5.95;;;;;;;17.12;80.53;92815.38;5092983;28;20550;-67
2022/08/22 04:17:05;;;;;;;9.25;5.70;;;;;;;17.18;81.34;92818.53;5093047;28;20180;-67
2022/08/22 04:19:52;;;;;;;6.53;4.97;;;;;;;17.24;81.00;92816.09;5091389;28;20039;-67
2022/08/22 04:22:57;;;;;;;7.18;5.57;;;;;;;17.34;80.13;92808.34;5091964;28;20039;-66
2022/08/22 04:25:30;;;;;;;6.05;4.95;;;;;;;17.25;80.86;92821.09;5092691;28;20031;-67
2022/08/22 04:28:09;;;;;;;12.45;6.45;;;;;;;17.25;81.55;92823.88;5091637;28;20087;-67
2022/08/22 04:30:37;;;;;;;;;;;;;;;17.27;82.06;92826.06;5092130;28;20390;-67
2022/08/22 04:33:29;;;;;;;9.17;5.20;;;;;;;17.32;81.57;92819.38;5096656;28;19946;-67
2022/08/22 04:36:16;;;;;;;15.60;6.15;;;;;;;17.40;81.94;92819.84;5111497;28;20051;-67
2022/08/22 04:38:52;;;;;;;9.80;7.35;;;;;;;17.48;81.36;92822.41;5112402;28;20035;-67
2022/08/22 04:41:41;;;;;;;13.68;7.53;;;;;;;17.56;81.26;92823.63;5111460;28;20035;-67
2022/08/22 04:44:13;;;;;;;8.25;6.05;;;;;;;17.69;81.69;92823.00;5111339;28;20080;-67
2022/08/22 04:47:01;;;;;;;9.13;5.80;;;;;;;17.77;81.34;92831.84;5111197;28;20088;-67
2022/08/22 04:49:59;;;;;;;9.93;6.03;;;;;;;17.64;80.28;92829.69;5111632;28;20420;-67
2022/08/22 04:52:39;;;;;;;8.07;6.72;;;;;;;17.72;79.64;92835.72;5107083;28;20093;-68
2022/08/22 05:12:10;;;;;;;9.63;7.88;;;;;;;18.80;76.65;92845.97;5128440;27;20685;-68
2022/08/22 05:14:39;;;;;;;13.65;8.45;;;;;;;18.85;76.66;92842.06;5127619;28;20034;-68
2022/08/22 05:17:08;;;;;;;12.45;8.20;;;;;;;18.81;76.61;92842.56;5127699;27;20459;-69
2022/08/22 05:19:35;;;;;;;;;;;;;;;18.87;76.57;92845.69;5108627;28;20559;-68
2022/08/22 05:22:01;;;;;;;14.18;8.13;;;;;;;18.86;76.22;92846.31;5106901;28;20307;-68
2022/08/22 05:24:34;;;;;;;12.60;8.13;;;;;;;18.86;76.58;92860.31;5107650;28;20020;-68
2022/08/22 05:27:07;;;;;;;12.75;8.50;;;;;;;18.89;76.95;92853.47;5106527;28;20040;-68
2022/08/22 05:29:32;;;;;;;12.15;8.52;;;;;;;18.89;76.89;92859.06;5106470;28;20020;-68
2022/08/22 05:32:04;;;;;;;13.80;8.63;;;;;;;18.84;77.37;92852.50;5107500;28;20062;-68
2022/08/22 05:34:36;;;;;;;11.95;9.75;;;;;;;18.80;78.02;92857.91;5110478;28;20098;-68
2022/08/22 05:37:13;;;;;;;15.15;9.60;;;;;;;18.77;78.61;92864.75;5107513;28;20071;-68
2022/08/22 05:39:45;;;;;;;14.25;9.15;;;;;;;18.82;79.08;92846.06;5106556;28;20016;-68
2022/08/22 05:42:13;;;;;;;13.15;8.80;;;;;;;18.81;79.68;92853.03;5106519;28;20031;-68
2022/08/22 05:44:39;;;;;;;11.82;8.20;;;;;;;18.91;79.57;92856.38;5106205;28;20034;-68
2022/08/22 05:47:16;;;;;;;12.73;9.48;;;;;;;18.92;79.26;92857.84;5107325;28;20028;-68
2022/08/22 05:49:56;;;;;;;13.13;9.50;;;;;;;19.06;79.21;92861.38;5107240;28;20024;-68
2022/08/22 05:52:43;;;;;;;14.43;9.15;;;;;;;19.15;78.81;92860.47;5107539;28;20038;-68
2022/08/22 05:55:27;;;;;;;12.00;8.15;;;;;;;19.25;77.05;92869.38;5107397;28;20451;-68
2022/08/22 05:58:02;;;;;;;11.15;8.45;;;;;;;19.24;76.66;92867.22;5106307;28;20032;-68
2022/08/22 06:00:31;;;;;;;13.77;9.25;;;;;;;19.13;77.34;92848.44;5106937;28;20024;-68
2022/08/22 06:02:56;;;;;;;10.13;8.05;;;;;;;19.29;76.45;92875.22;5107028;28;20466;-68
2022/08/22 06:05:28;;;;;;;11.30;8.60;;;;;;;19.40;75.81;92877.22;5107262;28;20035;-68
2022/08/22 06:08:10;;;;;;;9.80;7.63;;;;;;;19.49;75.62;92879.09;5107246;28;20035;-68
2022/08/22 06:10:41;;;;;;;11.40;7.15;;;;;;;19.56;74.78;92869.66;5104778;28;20044;-68
2022/08/22 06:13:14;;;;;;;10.02;7.55;;;;;;;19.74;73.97;92869.13;5092639;28;20024;-66
2022/08/22 06:16:08;;;;;;;9.13;6.82;;;;;;;19.96;72.67;92873.06;5093533;28;20016;-66
2022/08/22 06:18:35;;;;;;;12.18;6.75;;;;;;;20.12;71.80;92868.97;5093504;28;20046;-67
2022/08/22 06:21:03;;;;;;;9.85;7.35;;;;;;;20.22;71.62;92866.72;5093343;28;20020;-68
2022/08/22 06:23:35;;;;;;;12.55;6.88;;;;;;;20.29;70.64;92874.06;5091889;28;20063;-68
2022/08/22 06:26:00;;;;;;;8.57;6.40;;;;;;;20.31;71.42;92865.75;5092996;28;20031;-68
2022/08/22 06:28:40;;;;;;;11.43;7.70;;;;;;;20.44;71.53;92869.16;5092948;28;20024;-68
2022/08/22 06:31:14;;;;;;;9.13;7.20;;;;;;;20.64;71.57;92876.44;5093183;28;20428;-68
2022/08/22 06:33:40;;;;;;;10.05;7.25;;;;;;;20.81;70.22;92873.03;5092015;28;20035;-68
2022/08/22 06:36:29;;;;;;;8.40;6.35;;;;;;;20.97;69.85;92873.81;5091587;28;20028;-68
2022/08/22 06:39:04;;;;;;;10.20;6.53;;;;;;;21.03;68.31;92871.31;5093164;28;20028;-68
2022/08/22 06:41:33;;;;;;;9.52;6.50;;;;;;;21.14;68.99;92873.22;5092615;28;20512;-67
2022/08/22 06:44:01;;;;;;;12.30;6.22;;;;;;;21.20;67.56;92869.97;5091406;28;20144;-67
2022/08/22 06:46:28;;;;;;;8.95;6.35;;;;;;;21.13;67.32;92871.78;5091399;28;20081;-67
2022/08/22 06:48:55;;;;;;;10.32;5.78;;;;;;;21.28;66.78;92870.34;5091360;28;20039;-67
2022/08/22 06:51:21;;;;;;;7.07;6.18;;;;;;;21.43;66.47;92871.69;5092471;28;20027;-67
2022/08/22 06:53:49;;;;;;;15.07;7.63;;;;;;;21.61;67.04;92875.31;5092827;28;20255;-66
2022/08/22 06:56:22;;;;;;;8.40;5.85;;;;;;;21.73;65.89;92879.38;5091263;28;20028;-67
2022/08/22 06:58:50;;;;;;;7.00;5.45;;;;;;;22.00;65.47;92870.03;5092642;28;20107;-66
2022/08/22 07:01:30;;;;;;;7.50;6.07;;;;;;;22.05;64.15;92871.63;5091366;28;20028;-67
2022/08/22 07:04:05;;;;;;;12.45;7.18;;;;;;;22.06;63.07;92878.72;5091062;28;20450;-69
2022/08/22 07:06:40;;;;;;;8.98;6.97;;;;;;;21.96;64.38;92878.28;5109350;28;20533;-67
2022/08/22 07:09:05;;;;;;;10.65;6.18;;;;;;;22.02;64.62;92884.19;5099040;28;20020;-67
2022/08/22 07:11:38;;;;;;;10.05;6.78;;;;;;;22.06;64.87;92889.97;5090690;28;20039;-66
2022/08/22 07:14:12;;;;;;;7.68;6.45;;;;;;;22.06;65.02;92892.78;5092040;28;20032;-66
2022/08/22 07:17:01;;;;;;;13.30;6.28;;;;;;;22.12;64.67;92893.03;5091183;28;20416;-66
2022/08/22 07:19:31;;;;;;;;;;;;;;;22.06;65.27;92889.25;5091280;28;20024;-65
2022/08/22 07:21:57;;;;;;;15.02;6.00;;;;;;;22.32;65.27;92902.34;5092252;28;20319;-66
2022/08/22 07:24:26;;;;;;;12.65;6.97;;;;;;;22.48;64.96;92897.34;5091150;28;20024;-67
2022/08/22 07:27:01;;;;;;;;;;;;;;;22.43;63.50;92897.84;5091495;28;20111;-67
2022/08/22 07:29:36;;;;;;;9.90;6.40;;;;;;;22.53;62.97;92901.06;5090897;28;19912;-67
2022/08/22 07:32:04;;;;;;;8.45;5.97;;;;;;;22.66;62.51;92903.03;5091698;28;20081;-66
2022/08/22 07:34:32;;;;;;;8.52;5.78;;;;;;;23.11;62.70;92899.91;5091647;28;20032;-65
2022/08/22 07:37:17;;;;;;;9.50;5.90;;;;;;;23.81;60.56;92899.78;5091915;28;20470;-65
2022/08/22 07:39:53;;;;;;;7.82;5.53;;;;;;;24.05;59.33;92894.31;5090340;28;20107;-67
2022/08/22 07:42:43;;;;;;;8.43;5.90;;;;;;;24.59;57.10;92882.06;5090642;28;20035;-67
2022/08/22 07:45:09;;;;;;;5.90;5.25;;;;;;;25.48;55.35;92888.47;5090293;28;20110;-67
2022/08/22 07:47:57;;;;;;;8.07;5.43;;;;;;;25.93;53.99;92896.16;5091711;28;20035;-67
2022/08/22 07:50:30;;;;;;;8.25;5.75;;;;;;;26.54;52.36;92892.88;5091373;28;20039;-67
2022/08/22 07:53:03;;;;;;;7.30;5.55;;;;;;;27.28;49.90;92893.31;5091670;28;20036;-67
2022/08/22 07:55:28;;;;;;;6.47;5.65;;;;;;;27.21;49.34;92892.44;5091280;28;20039;-67
2022/08/22 07:58:00;;;;;;;8.50;5.90;;;;;;;26.74;49.87;92892.72;5091579;28;20027;-67
2022/08/22 08:00:28;;;;;;;11.73;6.40;;;;;;;26.40;51.21;92898.16;5091149;28;20028;-67
2022/08/22 08:02:57;;;;;;;8.88;5.78;;;;;;;26.31;51.30;92885.91;5108287;28;20041;-67
2022/08/22 08:05:26;;;;;;;9.52;6.10;;;;;;;26.98;49.81;92896.84;5110201;28;20038;-67
2022/08/22 08:07:52;;;;;;;;;;;;;;;27.48;48.59;92888.13;5109322;28;20492;-67
2022/08/22 08:10:24;;;;;;;6.85;5.65;;;;;;;26.99;48.61;92886.97;5089218;28;19926;-67
2022/08/22 08:12:52;;;;;;;8.25;5.93;;;;;;;27.15;49.07;92880.25;5090030;28;20028;-66
2022/08/22 08:15:20;;;;;;;9.32;6.00;;;;;;;27.58;47.15;92888.34;5091029;28;20020;-68
2022/08/22 08:17:53;;;;;;;8.18;5.85;;;;;;;28.04;46.93;92885.81;5090024;28;20039;-66
2022/08/22 08:20:20;;;;;;;7.15;6.20;;;;;;;28.14;46.81;92889.56;5090761;28;20035;-67
2022/08/22 08:22:46;;;;;;;6.18;5.57;;;;;;;28.36;46.59;92890.00;5089682;28;20114;-67
2022/08/22 08:25:17;;;;;;;8.40;5.75;;;;;;;28.64;45.82;92887.00;5090663;28;20028;-66
2022/08/22 08:30:35;;;;;;;7.03;6.07;;;;;;;29.95;41.93;92886.94;5089746;28;20054;-66
2022/08/22 08:33:03;;;;;;;7.93;6.65;;;;;;;29.48;42.24;92887.69;5090934;28;20035;-65
2022/08/22 08:35:34;;;;;;;9.43;7.13;;;;;;;29.14;43.75;92890.69;5089455;28;20052;-65
2022/08/22 08:38:19;;;;;;;9.73;7.40;;;;;;;28.73;43.83;92870.81;5089657;28;20476;-64
2022/08/22 08:40:54;;;;;;;8.90;7.32;;;;;;;28.26;44.46;92886.94;5089265;28;20062;-65
2022/08/22 08:43:54;;;;;;;8.82;8.02;;;;;;;27.98;45.99;92880.72;5090448;28;20722;-64
2022/08/22 08:46:53;;;;;;;11.55;7.35;;;;;;;27.63;48.23;92879.28;5077943;28;20504;-65
2022/08/22 08:49:35;;;;;;;15.18;7.70;;;;;;;27.42;48.83;92877.38;5090662;28;20044;-64
2022/08/22 08:52:19;;;;;;;10.27;7.65;;;;;;;26.99;49.12;92875.63;5090451;28;20028;-66
2022/08/22 08:55:01;;;;;;;12.23;8.98;;;;;;;27.10;49.91;92876.59;5090721;28;20046;-67
2022/08/22 08:57:44;;;;;;;7.60;6.63;;;;;;;28.91;45.91;92880.34;5093101;28;20062;-66
2022/08/22 09:00:21;;;;;;;8.13;7.32;;;;;;;30.40;41.38;92873.28;5110509;28;20031;-65
2022/08/22 09:03:02;;;;;;;8.05;7.05;;;;;;;31.10;39.89;92870.44;5109553;28;20071;-67
2022/08/22 09:06:03;;;;;;;10.93;9.80;;;;;;;30.63;39.10;92878.53;5110615;28;20023;-67
2022/08/22 09:08:29;;;;;;;8.98;8.07;;;;;;;30.28;39.92;92870.97;5103283;28;20028;-67
2022/08/22 09:11:16;;;;;;;9.60;8.00;;;;;;;29.68;41.40;92870.19;5090077;28;20040;-64
2022/08/22 09:14:09;;;;;;;7.57;6.82;;;;;;;29.44;41.81;92872.69;5090490;28;20028;-67
2022/08/22 09:16:47;;;;;;;11.60;7.63;;;;;;;28.69;43.94;92873.56;5087879;28;20036;-64
2022/08/22 09:19:42;;;;;;;9.80;8.00;;;;;;;29.08;42.82;92872.81;5089316;28;20389;-62
2022/08/22 09:22:37;;;;;;;11.27;6.90;;;;;;;28.67;42.67;92870.72;5090117;28;20426;-63
2022/08/22 09:25:18;;;;;;;13.90;9.10;;;;;;;28.31;44.97;92862.19;5090402;28;20103;-65
2022/08/22 09:28:00;;;;;;;8.95;8.05;;;;;;;28.17;45.97;92867.63;5090123;28;20138;-63
2022/08/22 09:30:41;;;;;;;10.55;8.30;;;;;;;28.03;44.87;92867.31;5089177;28;20024;-62
2022/08/22 09:33:17;;;;;;;7.68;6.93;;;;;;;28.57;43.24;92870.50;5088911;28;20466;-67
2022/08/22 09:35:48;;;;;;;9.48;6.97;;;;;;;29.41;42.13;92860.56;5089979;28;20024;-63
2022/08/22 09:39:01;;;;;;;8.30;7.05;;;;;;;29.75;43.53;92861.09;5089934;28;20577;-61
2022/08/22 09:41:51;;;;;;;10.77;7.30;;;;;;;31.09;40.33;92858.31;5088066;28;20039;-67
2022/08/22 09:44:26;;;;;;;5.78;5.05;;;;;;;32.63;33.93;92857.06;5089921;28;20484;-66
2022/08/22 09:46:55;;;;;;;6.43;5.03;;;;;;;33.93;33.01;92864.25;5091451;28;20028;-67
2022/08/22 09:49:20;;;;;;;;;;;;;;;34.82;31.24;92853.16;5094196;28;20032;-67
2022/08/22 09:52:11;;;;;;;6.57;5.30;;;;;;;35.48;29.81;92840.50;5093781;28;20025;-63
2022/08/22 09:54:44;;;;;;;7.63;5.57;;;;;;;33.68;32.15;92848.56;5104146;28;20035;-68
2022/08/22 09:57:15;;;;;;;7.32;5.70;;;;;;;33.35;33.90;92850.72;5113887;28;20020;-67
2022/08/22 10:00:05;;;;;;;6.95;5.22;;;;;;;34.13;31.68;92847.03;5113783;28;20040;-67
2022/08/22 10:02:31;;;;;;;9.57;6.47;;;;;;;33.51;32.00;92851.44;5114103;28;20024;-66
2022/08/22 10:05:20;;;;;;;7.50;6.13;;;;;;;32.92;33.55;92842.09;5113852;28;20108;-66
2022/08/22 10:08:12;;;;;;;6.63;6.00;;;;;;;32.72;34.72;92841.34;5112390;28;20118;-66
2022/08/22 10:10:38;;;;;;;6.78;5.80;;;;;;;34.02;34.01;92839.91;5093310;28;20048;-66
2022/08/22 10:13:24;;;;;;;7.25;6.28;;;;;;;34.31;31.08;92839.06;5093508;28;20047;-68
2022/08/22 10:15:56;;;;;;;8.18;5.93;;;;;;;34.98;29.23;92827.22;5093321;28;20024;-66
2022/08/22 10:19:14;;;;;;;8.23;6.90;;;;;;;33.57;31.18;92839.25;5091962;28;20031;-66
2022/08/22 10:21:45;;;;;;;8.10;7.40;;;;;;;32.20;33.31;92826.91;5034107;28;20103;-61
2022/08/22 10:24:50;;;;;;;8.82;7.28;;;;;;;31.58;33.93;92818.75;5090578;28;20040;-65
2022/08/22 10:27:18;;;;;;;10.40;7.15;;;;;;;30.63;37.06;92817.94;5093343;28;20032;-62
2022/08/22 10:29:50;;;;;;;;;;;;;;;30.22;38.42;92818.94;5092270;28;20439;-62
2022/08/22 10:32:24;;;;;;;8.13;7.28;;;;;;;29.78;39.03;92819.84;5093163;28;19912;-61
2022/08/22 10:34:54;;;;;;;10.27;7.53;;;;;;;29.33;40.39;92811.38;5091725;28;20047;-61
2022/08/22 10:37:49;;;;;;;11.57;8.23;;;;;;;29.19;41.73;92817.59;5092788;28;20053;-61
2022/08/22 10:40:27;;;;;;;11.27;9.18;;;;;;;29.12;41.53;92818.88;5055043;28;20033;-61
2022/08/22 10:43:01;;;;;;;10.23;8.60;;;;;;;29.02;40.71;92816.59;5093342;28;20036;-61
2022/08/22 10:45:39;;;;;;;11.73;8.50;;;;;;;28.70;41.90;92812.50;5091827;28;20115;-61
2022/08/22 10:48:04;;;;;;;9.48;8.10;;;;;;;28.50;44.42;92818.56;5092622;28;20035;-62
2022/08/22 10:50:34;;;;;;;9.00;7.45;;;;;;;28.18;45.39;92810.16;5092607;28;20332;-62
2022/08/22 10:55:48;;;;;;;9.10;7.95;;;;;;;28.10;45.08;92810.00;5091811;28;20573;-61
2022/08/22 10:58:20;;;;;;;10.45;8.10;;;;;;;27.93;45.88;92816.03;5091399;28;20055;-62
2022/08/22 11:00:53;;;;;;;8.82;7.82;;;;;;;27.70;45.58;92818.41;5091193;28;20488;-61
2022/08/22 11:03:46;;;;;;;11.15;7.90;;;;;;;27.59;44.92;92813.22;5091506;28;20093;-60
2022/08/22 11:06:22;;;;;;;10.23;8.18;;;;;;;27.44;45.83;92809.34;5092518;28;20024;-61
2022/08/22 11:09:18;;;;;;;10.57;7.32;;;;;;;27.37;44.77;92807.09;5095864;28;20110;-62
2022/08/22 11:12:22;;;;;;;12.10;8.40;;;;;;;27.24;47.49;92802.50;5091949;28;20130;-61
2022/08/22 11:15:04;;;;;;;9.50;8.50;;;;;;;27.29;49.22;92801.91;5069408;28;20094;-62
2022/08/22 11:18:07;;;;;;;9.18;7.68;;;;;;;27.20;48.48;92800.28;5069467;28;20029;-61
2022/08/22 11:20:46;;;;;;;20.30;8.68;;;;;;;27.33;48.36;92807.66;5087894;28;20402;-61
2022/08/22 11:23:49;;;;;;;8.88;7.72;;;;;;;27.07;48.71;92800.72;5091050;28;20547;-61
2022/08/22 11:26:31;;;;;;;12.68;9.20;;;;;;;26.78;49.38;92805.00;5092136;28;20052;-61
2022/08/22 11:29:35;;;;;;;9.38;8.45;;;;;;;26.52;50.98;92798.69;5090970;28;20063;-61
2022/08/22 11:32:10;;;;;;;9.70;8.35;;;;;;;26.56;51.42;92810.09;5091668;28;20028;-61
2022/08/22 11:34:54;;;;;;;12.63;8.13;;;;;;;26.70;49.96;92811.19;5090642;28;20029;-61
2022/08/22 11:37:48;;;;;;;14.43;8.45;;;;;;;26.91;50.43;92801.78;5091637;28;20521;-61
2022/08/22 11:40:34;;;;;;;10.38;7.50;;;;;;;27.83;50.05;92802.34;5090616;28;20024;-62
2022/08/22 11:43:26;;;;;;;9.27;7.10;;;;;;;29.01;45.81;92803.06;5090729;28;20035;-61
2022/08/22 11:45:56;;;;;;;8.23;7.38;;;;;;;29.20;44.06;92810.47;5091774;28;20046;-62
2022/08/22 11:48:57;;;;;;;9.23;7.18;;;;;;;28.77;43.60;92822.56;5110515;28;20053;-62
2022/08/22 11:51:41;;;;;;;9.25;7.68;;;;;;;28.32;45.85;92813.28;5095282;28;20523;-62
2022/08/22 11:54:23;;;;;;;9.32;7.95;;;;;;;27.91;47.41;92818.81;5110495;28;20031;-63
2022/08/22 11:56:54;;;;;;;14.02;7.78;;;;;;;27.91;46.64;92819.56;5095651;28;20032;-64
2022/08/22 11:59:41;;;;;;;9.75;7.53;;;;;;;27.71;46.97;92817.03;5110504;28;20050;-63
2022/08/22 12:02:16;;;;;;;14.70;8.30;;;;;;;27.56;47.71;92812.47;5111817;28;20034;-62
2022/08/22 12:04:49;;;;;;;12.65;8.82;;;;;;;27.71;48.67;92816.31;5110638;28;20080;-62
2022/08/22 12:07:28;;;;;;;13.43;8.82;;;;;;;27.91;49.77;92813.16;5112007;28;20047;-64
2022/08/22 12:10:05;;;;;;;9.35;8.38;;;;;;;28.27;49.62;92802.50;5104539;28;20028;-68
2022/08/22 12:13:06;;;;;;;12.82;8.30;;;;;;;28.32;47.79;92796.22;5110479;28;20157;-64
2022/08/22 12:15:34;;;;;;;10.48;8.20;;;;;;;28.69;47.35;92800.44;5110415;28;20389;-64
2022/08/22 12:18:27;;;;;;;9.45;8.45;;;;;;;28.71;47.35;92794.06;5111569;28;20080;-64
2022/08/22 12:21:30;;;;;;;11.52;8.43;;;;;;;28.68;46.67;92778.38;5111090;28;20053;-65
2022/08/22 12:24:10;;;;;;;9.68;8.02;;;;;;;28.25;46.96;92786.16;5111111;28;20123;-66
2022/08/22 12:26:57;;;;;;;11.07;8.60;;;;;;;27.53;48.56;92793.22;5111175;28;20508;-65
2022/08/22 12:29:43;;;;;;;12.77;9.85;;;;;;;26.68;49.84;92767.94;5111157;28;20023;-64
2022/08/22 12:32:14;;;;;;;14.02;10.13;;;;;;;26.39;52.08;92800.50;5109909;28;20027;-65
2022/08/22 12:35:04;;;;;;;11.95;9.40;;;;;;;26.15;50.28;92805.53;5111141;27;20496;-64
2022/08/22 12:37:51;;;;;;;18.48;11.18;;;;;;;25.75;51.63;92816.44;5110164;28;20100;-62
2022/08/22 12:40:50;;;;;;;12.98;8.85;;;;;;;25.25;52.39;92821.31;5110981;28;20023;-67
2022/08/22 12:43:30;;;;;;;15.45;9.45;;;;;;;25.04;55.74;92824.94;5100008;28;20531;-62
2022/08/22 12:46:13;;;;;;;15.60;8.55;;;;;;;24.56;55.61;92823.41;5090856;28;20428;-66
2022/08/22 12:48:52;;;;;;;10.75;7.82;;;;;;;23.83;53.10;92817.38;5090875;28;20047;-66
2022/08/22 12:51:29;;;;;;;13.07;7.82;;;;;;;23.35;54.53;92819.16;5091032;28;20039;-67
2022/08/22 12:54:04;;;;;;;11.57;7.40;;;;;;;23.08;55.86;92820.28;5090395;28;20020;-68